sensor_id;sensor_type;location;lat;lon;timestamp;P1;durP1;ratioP1;P2;durP2;ratioP2
2488;SDS011;1255;48.716;9.124;2022-08-07T00:02:05;1.63;;;1.30;;
2488;SDS011;1255;48.716;9.124;2022-08-07T00:04:33;1.30;;;1.20;;
2488;SDS011;1255;48.716;9.124;2022-08-07T00:07:00;1.27;;;1.10;;
2488;SDS011;1255;48.716;9.124;2022-08-07T00:09:27;1.63;;;1.03;;
2488;SDS011;1255;48.716;9.124;2022-08-07T00:11:53;1.43;;;1.33;;
2488;SDS011;1255;48.716;9.124;2022-08-07T00:14:20;1.30;;;1.10;;
2488;SDS011;1255;48.716;9.124;2022-08-07T00:16:48;1.47;;;1.20;;
2488;SDS011;1255;48.716;9.124;2022-08-07T00:19:15;2.40;;;1.17;;
2488;SDS011;1255;48.716;9.124;2022-08-07T00:21:43;1.20;;;1.07;;
2488;SDS011;1255;48.716;9.124;2022-08-07T00:24:10;1.73;;;1.40;;
2488;SDS011;1255;48.716;9.124;2022-08-07T00:26:36;1.53;;;1.00;;
2488;SDS011;1255;48.716;9.124;2022-08-07T00:29:03;1.40;;;1.30;;
2488;SDS011;1255;48.716;9.124;2022-08-07T00:31:30;1.97;;;1.57;;
2488;SDS011;1255;48.716;9.124;2022-08-07T00:33:56;1.60;;;1.40;;
2488;SDS011;1255;48.716;9.124;2022-08-07T00:36:23;1.47;;;1.20;;
2488;SDS011;1255;48.716;9.124;2022-08-07T00:38:51;1.10;;;1.00;;
2488;SDS011;1255;48.716;9.124;2022-08-07T00:41:23;1.40;;;1.13;;
2488;SDS011;1255;48.716;9.124;2022-08-07T00:43:51;1.70;;;1.20;;
2488;SDS011;1255;48.716;9.124;2022-08-07T00:46:20;1.50;;;1.40;;
2488;SDS011;1255;48.716;9.124;2022-08-07T00:48:47;1.50;;;1.30;;
2488;SDS011;1255;48.716;9.124;2022-08-07T00:51:14;1.33;;;1.20;;
2488;SDS011;1255;48.716;9.124;2022-08-07T00:53:40;1.63;;;1.40;;
2488;SDS011;1255;48.716;9.124;2022-08-07T00:56:09;1.10;;;1.00;;
2488;SDS011;1255;48.716;9.124;2022-08-07T00:58:36;2.40;;;1.57;;
2488;SDS011;1255;48.716;9.124;2022-08-07T01:01:06;1.40;;;1.30;;
2488;SDS011;1255;48.716;9.124;2022-08-07T01:03:33;1.30;;;1.20;;
2488;SDS011;1255;48.716;9.124;2022-08-07T01:06:00;1.67;;;1.30;;
2488;SDS011;1255;48.716;9.124;2022-08-07T01:08:27;1.93;;;1.60;;
2488;SDS011;1255;48.716;9.124;2022-08-07T01:10:54;1.60;;;1.20;;
2488;SDS011;1255;48.716;9.124;2022-08-07T01:13:23;2.03;;;1.40;;
2488;SDS011;1255;48.716;9.124;2022-08-07T01:15:49;1.43;;;1.23;;
2488;SDS011;1255;48.716;9.124;2022-08-07T01:18:17;1.20;;;1.10;;
2488;SDS011;1255;48.716;9.124;2022-08-07T01:20:45;1.40;;;1.30;;
2488;SDS011;1255;48.716;9.124;2022-08-07T01:23:19;1.53;;;1.43;;
2488;SDS011;1255;48.716;9.124;2022-08-07T01:25:46;1.67;;;1.37;;
2488;SDS011;1255;48.716;9.124;2022-08-07T01:28:14;1.87;;;1.30;;
2488;SDS011;1255;48.716;9.124;2022-08-07T01:30:40;1.60;;;1.40;;
2488;SDS011;1255;48.716;9.124;2022-08-07T01:33:08;2.50;;;1.83;;
2488;SDS011;1255;48.716;9.124;2022-08-07T01:35:35;1.57;;;1.30;;
2488;SDS011;1255;48.716;9.124;2022-08-07T01:38:02;1.70;;;1.30;;
2488;SDS011;1255;48.716;9.124;2022-08-07T01:40:30;1.80;;;1.70;;
2488;SDS011;1255;48.716;9.124;2022-08-07T01:42:58;1.57;;;1.47;;
2488;SDS011;1255;48.716;9.124;2022-08-07T01:45:26;1.60;;;1.33;;
2488;SDS011;1255;48.716;9.124;2022-08-07T01:47:53;1.60;;;1.33;;
2488;SDS011;1255;48.716;9.124;2022-08-07T01:50:20;2.43;;;1.40;;
2488;SDS011;1255;48.716;9.124;2022-08-07T01:52:48;1.87;;;1.77;;
2488;SDS011;1255;48.716;9.124;2022-08-07T01:55:17;2.77;;;1.77;;
2488;SDS011;1255;48.716;9.124;2022-08-07T01:57:48;1.30;;;1.20;;
2488;SDS011;1255;48.716;9.124;2022-08-07T02:00:19;2.20;;;1.77;;
2488;SDS011;1255;48.716;9.124;2022-08-07T02:02:46;1.60;;;1.50;;
2488;SDS011;1255;48.716;9.124;2022-08-07T02:05:22;2.13;;;1.50;;
2488;SDS011;1255;48.716;9.124;2022-08-07T02:07:54;2.23;;;1.60;;
2488;SDS011;1255;48.716;9.124;2022-08-07T02:10:23;1.67;;;1.40;;
2488;SDS011;1255;48.716;9.124;2022-08-07T02:12:53;2.27;;;1.93;;
2488;SDS011;1255;48.716;9.124;2022-08-07T02:15:24;1.73;;;1.53;;
2488;SDS011;1255;48.716;9.124;2022-08-07T02:17:52;1.53;;;1.43;;
2488;SDS011;1255;48.716;9.124;2022-08-07T02:20:21;1.80;;;1.60;;
2488;SDS011;1255;48.716;9.124;2022-08-07T02:22:49;3.27;;;1.87;;
2488;SDS011;1255;48.716;9.124;2022-08-07T02:25:17;2.03;;;1.50;;
2488;SDS011;1255;48.716;9.124;2022-08-07T02:27:46;1.87;;;1.67;;
2488;SDS011;1255;48.716;9.124;2022-08-07T02:30:16;1.50;;;1.40;;
2488;SDS011;1255;48.716;9.124;2022-08-07T02:32:43;1.43;;;1.33;;
2488;SDS011;1255;48.716;9.124;2022-08-07T02:35:11;2.13;;;1.60;;
2488;SDS011;1255;48.716;9.124;2022-08-07T02:37:42;2.50;;;1.90;;
2488;SDS011;1255;48.716;9.124;2022-08-07T02:40:10;1.30;;;1.13;;
2488;SDS011;1255;48.716;9.124;2022-08-07T02:42:38;1.60;;;1.33;;
2488;SDS011;1255;48.716;9.124;2022-08-07T02:45:06;1.77;;;1.53;;
2488;SDS011;1255;48.716;9.124;2022-08-07T02:47:38;4.00;;;1.43;;
2488;SDS011;1255;48.716;9.124;2022-08-07T02:50:05;2.53;;;1.43;;
2488;SDS011;1255;48.716;9.124;2022-08-07T02:52:33;2.73;;;1.83;;
2488;SDS011;1255;48.716;9.124;2022-08-07T02:55:03;2.23;;;1.70;;
2488;SDS011;1255;48.716;9.124;2022-08-07T02:57:33;1.80;;;1.67;;
2488;SDS011;1255;48.716;9.124;2022-08-07T03:00:03;1.40;;;1.30;;
2488;SDS011;1255;48.716;9.124;2022-08-07T03:02:30;1.60;;;1.50;;
2488;SDS011;1255;48.716;9.124;2022-08-07T03:05:00;1.90;;;1.70;;
2488;SDS011;1255;48.716;9.124;2022-08-07T03:07:28;1.60;;;1.50;;
2488;SDS011;1255;48.716;9.124;2022-08-07T03:09:55;1.83;;;1.70;;
2488;SDS011;1255;48.716;9.124;2022-08-07T03:12:22;1.90;;;1.67;;
2488;SDS011;1255;48.716;9.124;2022-08-07T03:14:50;1.47;;;1.37;;
2488;SDS011;1255;48.716;9.124;2022-08-07T03:17:20;2.27;;;1.80;;
2488;SDS011;1255;48.716;9.124;2022-08-07T03:19:47;1.93;;;1.33;;
2488;SDS011;1255;48.716;9.124;2022-08-07T03:22:16;2.50;;;1.53;;
2488;SDS011;1255;48.716;9.124;2022-08-07T03:24:43;1.67;;;1.40;;
2488;SDS011;1255;48.716;9.124;2022-08-07T03:27:10;1.70;;;1.60;;
2488;SDS011;1255;48.716;9.124;2022-08-07T03:29:38;1.77;;;1.67;;
2488;SDS011;1255;48.716;9.124;2022-08-07T03:32:08;1.50;;;1.37;;
2488;SDS011;1255;48.716;9.124;2022-08-07T03:34:37;1.60;;;1.50;;
2488;SDS011;1255;48.716;9.124;2022-08-07T03:37:05;1.70;;;1.30;;
2488;SDS011;1255;48.716;9.124;2022-08-07T03:39:36;1.40;;;1.30;;
2488;SDS011;1255;48.716;9.124;2022-08-07T03:42:04;1.60;;;1.50;;
2488;SDS011;1255;48.716;9.124;2022-08-07T03:44:32;2.80;;;1.67;;
2488;SDS011;1255;48.716;9.124;2022-08-07T03:47:01;1.93;;;1.40;;
2488;SDS011;1255;48.716;9.124;2022-08-07T03:49:29;1.47;;;1.37;;
2488;SDS011;1255;48.716;9.124;2022-08-07T03:51:56;1.60;;;1.50;;
2488;SDS011;1255;48.716;9.124;2022-08-07T03:54:24;2.00;;;1.37;;
2488;SDS011;1255;48.716;9.124;2022-08-07T03:56:52;1.80;;;1.70;;
2488;SDS011;1255;48.716;9.124;2022-08-07T03:59:20;1.73;;;1.23;;
2488;SDS011;1255;48.716;9.124;2022-08-07T04:01:47;1.70;;;1.60;;
2488;SDS011;1255;48.716;9.124;2022-08-07T04:04:15;1.53;;;1.43;;
2488;SDS011;1255;48.716;9.124;2022-08-07T04:06:42;3.90;;;1.73;;
2488;SDS011;1255;48.716;9.124;2022-08-07T04:09:10;1.67;;;1.50;;
2488;SDS011;1255;48.716;9.124;2022-08-07T04:11:38;1.40;;;1.30;;
2488;SDS011;1255;48.716;9.124;2022-08-07T04:14:06;1.70;;;1.50;;
2488;SDS011;1255;48.716;9.124;2022-08-07T04:16:34;1.60;;;1.50;;
2488;SDS011;1255;48.716;9.124;2022-08-07T04:19:02;1.47;;;1.30;;
2488;SDS011;1255;48.716;9.124;2022-08-07T04:21:29;1.43;;;1.33;;
2488;SDS011;1255;48.716;9.124;2022-08-07T04:23:56;2.43;;;1.70;;
2488;SDS011;1255;48.716;9.124;2022-08-07T04:26:23;1.30;;;1.20;;
2488;SDS011;1255;48.716;9.124;2022-08-07T04:28:50;1.60;;;1.50;;
2488;SDS011;1255;48.716;9.124;2022-08-07T04:31:18;1.90;;;1.50;;
2488;SDS011;1255;48.716;9.124;2022-08-07T04:33:49;1.40;;;1.30;;
2488;SDS011;1255;48.716;9.124;2022-08-07T04:36:16;1.60;;;1.50;;
2488;SDS011;1255;48.716;9.124;2022-08-07T04:38:43;2.00;;;1.80;;
2488;SDS011;1255;48.716;9.124;2022-08-07T04:41:09;1.80;;;1.70;;
2488;SDS011;1255;48.716;9.124;2022-08-07T04:43:37;1.50;;;1.40;;
2488;SDS011;1255;48.716;9.124;2022-08-07T04:46:06;1.57;;;1.40;;
2488;SDS011;1255;48.716;9.124;2022-08-07T04:48:40;1.57;;;1.47;;
2488;SDS011;1255;48.716;9.124;2022-08-07T04:51:14;1.30;;;1.20;;
2488;SDS011;1255;48.716;9.124;2022-08-07T04:53:49;1.90;;;1.80;;
2488;SDS011;1255;48.716;9.124;2022-08-07T04:56:23;1.47;;;1.37;;
2488;SDS011;1255;48.716;9.124;2022-08-07T04:58:57;1.50;;;1.40;;
2488;SDS011;1255;48.716;9.124;2022-08-07T05:01:34;1.80;;;1.70;;
2488;SDS011;1255;48.716;9.124;2022-08-07T05:04:07;2.00;;;1.80;;
2488;SDS011;1255;48.716;9.124;2022-08-07T05:06:40;1.80;;;1.70;;
2488;SDS011;1255;48.716;9.124;2022-08-07T05:09:15;1.77;;;1.67;;
2488;SDS011;1255;48.716;9.124;2022-08-07T05:11:48;1.77;;;1.43;;
2488;SDS011;1255;48.716;9.124;2022-08-07T05:14:18;1.60;;;1.50;;
2488;SDS011;1255;48.716;9.124;2022-08-07T05:16:48;2.00;;;1.80;;
2488;SDS011;1255;48.716;9.124;2022-08-07T05:19:20;1.80;;;1.70;;
2488;SDS011;1255;48.716;9.124;2022-08-07T05:21:51;1.67;;;1.57;;
2488;SDS011;1255;48.716;9.124;2022-08-07T05:24:21;1.57;;;1.47;;
2488;SDS011;1255;48.716;9.124;2022-08-07T05:26:52;1.87;;;1.53;;
2488;SDS011;1255;48.716;9.124;2022-08-07T05:29:40;2.17;;;1.53;;
2488;SDS011;1255;48.716;9.124;2022-08-07T05:32:08;1.87;;;1.60;;
2488;SDS011;1255;48.716;9.124;2022-08-07T05:34:37;2.00;;;1.90;;
2488;SDS011;1255;48.716;9.124;2022-08-07T05:37:06;2.40;;;2.03;;
2488;SDS011;1255;48.716;9.124;2022-08-07T05:39:34;2.53;;;2.33;;
2488;SDS011;1255;48.716;9.124;2022-08-07T05:42:01;1.60;;;1.40;;
2488;SDS011;1255;48.716;9.124;2022-08-07T05:44:30;2.17;;;1.63;;
2488;SDS011;1255;48.716;9.124;2022-08-07T05:47:00;1.90;;;1.77;;
2488;SDS011;1255;48.716;9.124;2022-08-07T05:49:28;1.70;;;1.60;;
2488;SDS011;1255;48.716;9.124;2022-08-07T05:51:56;1.73;;;1.63;;
2488;SDS011;1255;48.716;9.124;2022-08-07T05:54:23;1.90;;;1.80;;
2488;SDS011;1255;48.716;9.124;2022-08-07T05:56:50;1.93;;;1.63;;
2488;SDS011;1255;48.716;9.124;2022-08-07T05:59:19;2.40;;;1.77;;
2488;SDS011;1255;48.716;9.124;2022-08-07T06:01:47;2.70;;;2.20;;
2488;SDS011;1255;48.716;9.124;2022-08-07T06:04:15;1.70;;;1.60;;
2488;SDS011;1255;48.716;9.124;2022-08-07T06:06:44;2.13;;;1.90;;
2488;SDS011;1255;48.716;9.124;2022-08-07T06:09:13;3.40;;;1.90;;
2488;SDS011;1255;48.716;9.124;2022-08-07T06:11:40;2.33;;;1.90;;
2488;SDS011;1255;48.716;9.124;2022-08-07T06:14:07;2.03;;;1.87;;
2488;SDS011;1255;48.716;9.124;2022-08-07T06:16:34;2.30;;;2.10;;
2488;SDS011;1255;48.716;9.124;2022-08-07T06:19:03;2.33;;;2.00;;
2488;SDS011;1255;48.716;9.124;2022-08-07T06:21:30;4.10;;;3.70;;
2488;SDS011;1255;48.716;9.124;2022-08-07T06:23:57;3.00;;;2.80;;
2488;SDS011;1255;48.716;9.124;2022-08-07T06:26:26;3.10;;;2.80;;
2488;SDS011;1255;48.716;9.124;2022-08-07T06:28:53;3.33;;;3.03;;
2488;SDS011;1255;48.716;9.124;2022-08-07T06:31:22;4.20;;;3.27;;
2488;SDS011;1255;48.716;9.124;2022-08-07T06:33:49;3.70;;;3.40;;
2488;SDS011;1255;48.716;9.124;2022-08-07T06:36:16;3.37;;;3.10;;
2488;SDS011;1255;48.716;9.124;2022-08-07T06:38:43;5.10;;;3.53;;
2488;SDS011;1255;48.716;9.124;2022-08-07T06:41:11;3.43;;;3.17;;
2488;SDS011;1255;48.716;9.124;2022-08-07T06:43:43;3.40;;;3.13;;
2488;SDS011;1255;48.716;9.124;2022-08-07T06:46:12;3.37;;;3.03;;
2488;SDS011;1255;48.716;9.124;2022-08-07T06:48:40;3.73;;;3.43;;
2488;SDS011;1255;48.716;9.124;2022-08-07T06:51:08;3.60;;;3.30;;
2488;SDS011;1255;48.716;9.124;2022-08-07T06:53:39;4.17;;;3.70;;
2488;SDS011;1255;48.716;9.124;2022-08-07T06:56:07;4.70;;;4.10;;
2488;SDS011;1255;48.716;9.124;2022-08-07T06:58:35;3.30;;;3.00;;
2488;SDS011;1255;48.716;9.124;2022-08-07T07:01:06;2.70;;;2.50;;
2488;SDS011;1255;48.716;9.124;2022-08-07T07:03:36;2.50;;;2.20;;
2488;SDS011;1255;48.716;9.124;2022-08-07T07:06:05;2.70;;;2.50;;
2488;SDS011;1255;48.716;9.124;2022-08-07T07:08:32;2.63;;;2.43;;
2488;SDS011;1255;48.716;9.124;2022-08-07T07:11:00;2.70;;;2.50;;
2488;SDS011;1255;48.716;9.124;2022-08-07T07:13:28;3.23;;;2.47;;
2488;SDS011;1255;48.716;9.124;2022-08-07T07:16:00;2.33;;;2.13;;
2488;SDS011;1255;48.716;9.124;2022-08-07T07:18:33;2.60;;;2.40;;
2488;SDS011;1255;48.716;9.124;2022-08-07T07:21:07;3.13;;;2.60;;
2488;SDS011;1255;48.716;9.124;2022-08-07T07:23:40;2.03;;;1.83;;
2488;SDS011;1255;48.716;9.124;2022-08-07T07:26:08;2.40;;;2.20;;
2488;SDS011;1255;48.716;9.124;2022-08-07T07:28:39;2.30;;;2.10;;
2488;SDS011;1255;48.716;9.124;2022-08-07T07:31:14;4.70;;;1.93;;
2488;SDS011;1255;48.716;9.124;2022-08-07T07:33:46;2.37;;;2.17;;
2488;SDS011;1255;48.716;9.124;2022-08-07T07:36:17;2.47;;;2.27;;
2488;SDS011;1255;48.716;9.124;2022-08-07T07:38:45;2.23;;;1.93;;
2488;SDS011;1255;48.716;9.124;2022-08-07T07:41:12;2.00;;;1.90;;
2488;SDS011;1255;48.716;9.124;2022-08-07T07:43:42;2.67;;;2.23;;
2488;SDS011;1255;48.716;9.124;2022-08-07T07:46:10;2.17;;;1.97;;
2488;SDS011;1255;48.716;9.124;2022-08-07T07:48:39;1.57;;;1.47;;
2488;SDS011;1255;48.716;9.124;2022-08-07T07:51:08;1.70;;;1.50;;
2488;SDS011;1255;48.716;9.124;2022-08-07T07:53:37;1.73;;;1.63;;
2488;SDS011;1255;48.716;9.124;2022-08-07T07:56:07;1.90;;;1.80;;
2488;SDS011;1255;48.716;9.124;2022-08-07T07:58:35;1.97;;;1.70;;
2488;SDS011;1255;48.716;9.124;2022-08-07T08:01:04;2.00;;;1.80;;
2488;SDS011;1255;48.716;9.124;2022-08-07T08:03:33;3.50;;;2.17;;
2488;SDS011;1255;48.716;9.124;2022-08-07T08:06:02;1.40;;;1.30;;
2488;SDS011;1255;48.716;9.124;2022-08-07T08:08:32;1.40;;;1.20;;
2488;SDS011;1255;48.716;9.124;2022-08-07T08:11:01;1.50;;;1.40;;
2488;SDS011;1255;48.716;9.124;2022-08-07T08:13:29;1.73;;;1.63;;
2488;SDS011;1255;48.716;9.124;2022-08-07T08:15:58;1.60;;;1.50;;
2488;SDS011;1255;48.716;9.124;2022-08-07T08:18:27;1.70;;;1.60;;
2488;SDS011;1255;48.716;9.124;2022-08-07T08:20:56;1.90;;;1.60;;
2488;SDS011;1255;48.716;9.124;2022-08-07T08:23:26;2.17;;;1.60;;
2488;SDS011;1255;48.716;9.124;2022-08-07T08:26:14;1.60;;;1.43;;
2488;SDS011;1255;48.716;9.124;2022-08-07T08:29:00;1.97;;;1.87;;
2488;SDS011;1255;48.716;9.124;2022-08-07T08:31:28;1.70;;;1.50;;
2488;SDS011;1255;48.716;9.124;2022-08-07T08:34:00;1.30;;;1.20;;
2488;SDS011;1255;48.716;9.124;2022-08-07T08:36:29;1.70;;;1.60;;
2488;SDS011;1255;48.716;9.124;2022-08-07T08:38:59;1.70;;;1.50;;
2488;SDS011;1255;48.716;9.124;2022-08-07T08:41:30;1.90;;;1.70;;
2488;SDS011;1255;48.716;9.124;2022-08-07T08:44:07;2.03;;;1.73;;
2488;SDS011;1255;48.716;9.124;2022-08-07T08:46:41;1.63;;;1.53;;
2488;SDS011;1255;48.716;9.124;2022-08-07T08:49:15;2.00;;;1.80;;
2488;SDS011;1255;48.716;9.124;2022-08-07T08:51:49;4.13;;;1.63;;
2488;SDS011;1255;48.716;9.124;2022-08-07T08:54:22;2.50;;;1.40;;
2488;SDS011;1255;48.716;9.124;2022-08-07T08:56:54;2.00;;;1.80;;
2488;SDS011;1255;48.716;9.124;2022-08-07T08:59:26;5.83;;;1.90;;
2488;SDS011;1255;48.716;9.124;2022-08-07T09:02:04;3.10;;;1.80;;
2488;SDS011;1255;48.716;9.124;2022-08-07T09:04:40;1.80;;;1.50;;
2488;SDS011;1255;48.716;9.124;2022-08-07T09:07:13;1.73;;;1.47;;
2488;SDS011;1255;48.716;9.124;2022-08-07T09:09:50;1.60;;;1.50;;
2488;SDS011;1255;48.716;9.124;2022-08-07T09:12:42;1.10;;;1.00;;
2488;SDS011;1255;48.716;9.124;2022-08-07T09:15:22;1.67;;;1.57;;
2488;SDS011;1255;48.716;9.124;2022-08-07T09:18:05;1.53;;;1.43;;
2488;SDS011;1255;48.716;9.124;2022-08-07T09:20:47;1.80;;;1.70;;
2488;SDS011;1255;48.716;9.124;2022-08-07T09:23:25;1.60;;;1.47;;
2488;SDS011;1255;48.716;9.124;2022-08-07T09:26:00;2.37;;;1.63;;
2488;SDS011;1255;48.716;9.124;2022-08-07T09:28:41;1.40;;;1.30;;
2488;SDS011;1255;48.716;9.124;2022-08-07T09:31:12;2.47;;;1.50;;
2488;SDS011;1255;48.716;9.124;2022-08-07T09:33:51;2.17;;;1.30;;
2488;SDS011;1255;48.716;9.124;2022-08-07T09:36:33;1.40;;;1.30;;
2488;SDS011;1255;48.716;9.124;2022-08-07T09:39:12;1.40;;;1.30;;
2488;SDS011;1255;48.716;9.124;2022-08-07T09:41:51;1.80;;;1.70;;
2488;SDS011;1255;48.716;9.124;2022-08-07T09:44:28;1.57;;;1.10;;
2488;SDS011;1255;48.716;9.124;2022-08-07T09:47:08;1.47;;;1.37;;
2488;SDS011;1255;48.716;9.124;2022-08-07T09:49:41;1.30;;;1.20;;
2488;SDS011;1255;48.716;9.124;2022-08-07T09:52:19;2.23;;;1.30;;
2488;SDS011;1255;48.716;9.124;2022-08-07T09:54:53;1.70;;;1.50;;
2488;SDS011;1255;48.716;9.124;2022-08-07T09:57:29;1.20;;;1.10;;
2488;SDS011;1255;48.716;9.124;2022-08-07T10:00:16;1.30;;;1.20;;
2488;SDS011;1255;48.716;9.124;2022-08-07T10:06:03;1.60;;;1.00;;
2488;SDS011;1255;48.716;9.124;2022-08-07T10:08:58;1.50;;;1.27;;
2488;SDS011;1255;48.716;9.124;2022-08-07T10:11:59;1.30;;;1.03;;
2488;SDS011;1255;48.716;9.124;2022-08-07T10:14:44;1.20;;;1.10;;
2488;SDS011;1255;48.716;9.124;2022-08-07T10:17:33;1.40;;;1.30;;
2488;SDS011;1255;48.716;9.124;2022-08-07T10:20:15;1.30;;;1.20;;
2488;SDS011;1255;48.716;9.124;2022-08-07T10:22:59;8.23;;;1.37;;
2488;SDS011;1255;48.716;9.124;2022-08-07T10:25:38;1.20;;;1.10;;
2488;SDS011;1255;48.716;9.124;2022-08-07T10:28:25;1.20;;;1.10;;
2488;SDS011;1255;48.716;9.124;2022-08-07T10:31:06;1.83;;;1.00;;
2488;SDS011;1255;48.716;9.124;2022-08-07T10:33:54;1.10;;;1.00;;
2488;SDS011;1255;48.716;9.124;2022-08-07T10:36:34;1.00;;;0.80;;
2488;SDS011;1255;48.716;9.124;2022-08-07T10:39:11;3.20;;;1.00;;
2488;SDS011;1255;48.716;9.124;2022-08-07T10:41:50;1.30;;;1.20;;
2488;SDS011;1255;48.716;9.124;2022-08-07T10:44:24;1.63;;;1.00;;
2488;SDS011;1255;48.716;9.124;2022-08-07T10:47:00;1.20;;;1.00;;
2488;SDS011;1255;48.716;9.124;2022-08-07T10:49:40;1.10;;;1.00;;
2488;SDS011;1255;48.716;9.124;2022-08-07T10:52:17;2.03;;;1.00;;
2488;SDS011;1255;48.716;9.124;2022-08-07T10:55:02;1.80;;;1.07;;
2488;SDS011;1255;48.716;9.124;2022-08-07T10:57:38;1.20;;;1.10;;
2488;SDS011;1255;48.716;9.124;2022-08-07T11:00:11;1.30;;;1.20;;
2488;SDS011;1255;48.716;9.124;2022-08-07T11:02:41;1.03;;;0.93;;
2488;SDS011;1255;48.716;9.124;2022-08-07T11:05:21;1.20;;;1.10;;
2488;SDS011;1255;48.716;9.124;2022-08-07T11:07:58;1.30;;;1.20;;
2488;SDS011;1255;48.716;9.124;2022-08-07T11:10:37;1.10;;;1.00;;
2488;SDS011;1255;48.716;9.124;2022-08-07T11:13:09;1.00;;;0.80;;
2488;SDS011;1255;48.716;9.124;2022-08-07T11:15:41;1.57;;;1.10;;
2488;SDS011;1255;48.716;9.124;2022-08-07T11:18:13;2.07;;;1.20;;
2488;SDS011;1255;48.716;9.124;2022-08-07T11:20:54;1.07;;;0.97;;
2488;SDS011;1255;48.716;9.124;2022-08-07T11:23:29;1.13;;;0.90;;
2488;SDS011;1255;48.716;9.124;2022-08-07T11:26:10;1.20;;;1.10;;
2488;SDS011;1255;48.716;9.124;2022-08-07T11:28:47;1.50;;;1.20;;
2488;SDS011;1255;48.716;9.124;2022-08-07T11:31:21;1.40;;;1.30;;
2488;SDS011;1255;48.716;9.124;2022-08-07T11:33:56;1.30;;;1.20;;
2488;SDS011;1255;48.716;9.124;2022-08-07T11:39:30;1.90;;;1.17;;
2488;SDS011;1255;48.716;9.124;2022-08-07T11:42:08;2.40;;;1.20;;
2488;SDS011;1255;48.716;9.124;2022-08-07T11:44:46;1.10;;;1.00;;
2488;SDS011;1255;48.716;9.124;2022-08-07T11:47:35;1.13;;;1.03;;
2488;SDS011;1255;48.716;9.124;2022-08-07T11:50:22;1.53;;;1.10;;
2488;SDS011;1255;48.716;9.124;2022-08-07T11:53:23;1.93;;;1.20;;
2488;SDS011;1255;48.716;9.124;2022-08-07T11:56:17;1.23;;;1.10;;
2488;SDS011;1255;48.716;9.124;2022-08-07T11:58:57;1.10;;;1.00;;
2488;SDS011;1255;48.716;9.124;2022-08-07T12:01:37;1.20;;;1.10;;
2488;SDS011;1255;48.716;9.124;2022-08-07T12:07:16;1.37;;;1.27;;
2488;SDS011;1255;48.716;9.124;2022-08-07T12:09:52;2.80;;;1.10;;
2488;SDS011;1255;48.716;9.124;2022-08-07T12:12:24;1.30;;;1.13;;
2488;SDS011;1255;48.716;9.124;2022-08-07T12:14:56;1.50;;;1.00;;
2488;SDS011;1255;48.716;9.124;2022-08-07T12:17:32;1.10;;;1.00;;
2488;SDS011;1255;48.716;9.124;2022-08-07T12:20:07;1.40;;;1.30;;
2488;SDS011;1255;48.716;9.124;2022-08-07T12:22:39;1.30;;;1.20;;
2488;SDS011;1255;48.716;9.124;2022-08-07T12:25:16;1.87;;;1.03;;
2488;SDS011;1255;48.716;9.124;2022-08-07T12:28:09;1.50;;;1.20;;
2488;SDS011;1255;48.716;9.124;2022-08-07T12:30:49;1.30;;;1.20;;
2488;SDS011;1255;48.716;9.124;2022-08-07T12:33:22;1.30;;;1.20;;
2488;SDS011;1255;48.716;9.124;2022-08-07T12:35:53;1.57;;;1.10;;
2488;SDS011;1255;48.716;9.124;2022-08-07T12:38:22;1.20;;;1.10;;
2488;SDS011;1255;48.716;9.124;2022-08-07T12:40:55;1.03;;;0.93;;
2488;SDS011;1255;48.716;9.124;2022-08-07T12:43:26;1.10;;;1.00;;
2488;SDS011;1255;48.716;9.124;2022-08-07T12:45:59;1.40;;;1.30;;
2488;SDS011;1255;48.716;9.124;2022-08-07T12:48:35;1.30;;;1.20;;
2488;SDS011;1255;48.716;9.124;2022-08-07T12:51:09;1.67;;;1.10;;
2488;SDS011;1255;48.716;9.124;2022-08-07T12:53:48;1.20;;;1.00;;
2488;SDS011;1255;48.716;9.124;2022-08-07T12:56:40;2.20;;;1.23;;
2488;SDS011;1255;48.716;9.124;2022-08-07T12:59:34;1.40;;;1.30;;
2488;SDS011;1255;48.716;9.124;2022-08-07T13:02:14;1.10;;;1.00;;
2488;SDS011;1255;48.716;9.124;2022-08-07T13:04:58;3.20;;;1.27;;
2488;SDS011;1255;48.716;9.124;2022-08-07T13:10:31;1.20;;;1.10;;
2488;SDS011;1255;48.716;9.124;2022-08-07T13:13:13;1.00;;;0.90;;
2488;SDS011;1255;48.716;9.124;2022-08-07T13:15:55;1.30;;;1.20;;
2488;SDS011;1255;48.716;9.124;2022-08-07T13:18:30;4.70;;;1.50;;
2488;SDS011;1255;48.716;9.124;2022-08-07T13:21:09;1.83;;;1.20;;
2488;SDS011;1255;48.716;9.124;2022-08-07T13:23:44;1.30;;;1.17;;
2488;SDS011;1255;48.716;9.124;2022-08-07T13:26:16;1.10;;;1.00;;
2488;SDS011;1255;48.716;9.124;2022-08-07T13:28:52;1.57;;;1.47;;
2488;SDS011;1255;48.716;9.124;2022-08-07T13:31:28;1.60;;;1.50;;
2488;SDS011;1255;48.716;9.124;2022-08-07T13:34:01;1.47;;;1.20;;
2488;SDS011;1255;48.716;9.124;2022-08-07T13:36:39;1.50;;;1.30;;
2488;SDS011;1255;48.716;9.124;2022-08-07T13:39:09;1.80;;;1.27;;
2488;SDS011;1255;48.716;9.124;2022-08-07T13:41:47;1.37;;;1.20;;
2488;SDS011;1255;48.716;9.124;2022-08-07T13:44:18;1.50;;;1.40;;
2488;SDS011;1255;48.716;9.124;2022-08-07T13:46:50;1.43;;;1.33;;
2488;SDS011;1255;48.716;9.124;2022-08-07T13:49:20;1.20;;;1.10;;
2488;SDS011;1255;48.716;9.124;2022-08-07T13:51:49;1.27;;;1.17;;
2488;SDS011;1255;48.716;9.124;2022-08-07T13:54:17;1.33;;;1.23;;
2488;SDS011;1255;48.716;9.124;2022-08-07T13:56:53;1.50;;;1.40;;
2488;SDS011;1255;48.716;9.124;2022-08-07T13:59:24;1.20;;;1.10;;
2488;SDS011;1255;48.716;9.124;2022-08-07T14:01:55;1.43;;;1.33;;
2488;SDS011;1255;48.716;9.124;2022-08-07T14:04:31;1.93;;;1.20;;
2488;SDS011;1255;48.716;9.124;2022-08-07T14:07:04;1.30;;;1.20;;
2488;SDS011;1255;48.716;9.124;2022-08-07T14:09:33;1.33;;;1.23;;
2488;SDS011;1255;48.716;9.124;2022-08-07T14:12:04;1.43;;;1.33;;
2488;SDS011;1255;48.716;9.124;2022-08-07T14:14:37;1.30;;;1.10;;
2488;SDS011;1255;48.716;9.124;2022-08-07T14:17:07;1.30;;;1.20;;
2488;SDS011;1255;48.716;9.124;2022-08-07T14:19:37;1.70;;;1.10;;
2488;SDS011;1255;48.716;9.124;2022-08-07T14:22:14;1.87;;;1.30;;
2488;SDS011;1255;48.716;9.124;2022-08-07T14:24:47;1.90;;;1.20;;
2488;SDS011;1255;48.716;9.124;2022-08-07T14:27:18;1.60;;;1.50;;
2488;SDS011;1255;48.716;9.124;2022-08-07T14:29:54;1.57;;;1.30;;
2488;SDS011;1255;48.716;9.124;2022-08-07T14:32:26;1.40;;;1.30;;
2488;SDS011;1255;48.716;9.124;2022-08-07T14:34:54;1.33;;;1.10;;
2488;SDS011;1255;48.716;9.124;2022-08-07T14:37:23;2.70;;;1.20;;
2488;SDS011;1255;48.716;9.124;2022-08-07T14:39:50;1.77;;;1.40;;
2488;SDS011;1255;48.716;9.124;2022-08-07T14:42:21;3.37;;;1.40;;
2488;SDS011;1255;48.716;9.124;2022-08-07T14:44:54;1.50;;;1.40;;
2488;SDS011;1255;48.716;9.124;2022-08-07T14:47:24;1.70;;;1.60;;
2488;SDS011;1255;48.716;9.124;2022-08-07T14:49:55;1.73;;;1.20;;
2488;SDS011;1255;48.716;9.124;2022-08-07T14:52:24;1.60;;;1.40;;
2488;SDS011;1255;48.716;9.124;2022-08-07T14:54:52;1.20;;;1.10;;
2488;SDS011;1255;48.716;9.124;2022-08-07T14:57:20;1.30;;;1.20;;
2488;SDS011;1255;48.716;9.124;2022-08-07T14:59:49;1.53;;;1.43;;
2488;SDS011;1255;48.716;9.124;2022-08-07T15:02:20;1.20;;;1.00;;
2488;SDS011;1255;48.716;9.124;2022-08-07T15:04:49;1.30;;;1.20;;
2488;SDS011;1255;48.716;9.124;2022-08-07T15:07:17;1.57;;;1.30;;
2488;SDS011;1255;48.716;9.124;2022-08-07T15:09:48;1.43;;;1.33;;
2488;SDS011;1255;48.716;9.124;2022-08-07T15:12:18;1.20;;;1.10;;
2488;SDS011;1255;48.716;9.124;2022-08-07T15:14:50;1.20;;;1.07;;
2488;SDS011;1255;48.716;9.124;2022-08-07T15:17:23;1.20;;;1.10;;
2488;SDS011;1255;48.716;9.124;2022-08-07T15:19:56;1.30;;;1.20;;
2488;SDS011;1255;48.716;9.124;2022-08-07T15:22:26;1.50;;;1.40;;
2488;SDS011;1255;48.716;9.124;2022-08-07T15:24:56;1.40;;;1.30;;
2488;SDS011;1255;48.716;9.124;2022-08-07T15:27:24;1.30;;;1.13;;
2488;SDS011;1255;48.716;9.124;2022-08-07T15:29:54;1.30;;;1.20;;
2488;SDS011;1255;48.716;9.124;2022-08-07T15:32:26;1.23;;;1.13;;
2488;SDS011;1255;48.716;9.124;2022-08-07T15:34:55;1.30;;;1.20;;
2488;SDS011;1255;48.716;9.124;2022-08-07T15:37:25;1.73;;;1.33;;
2488;SDS011;1255;48.716;9.124;2022-08-07T15:39:56;1.63;;;1.30;;
2488;SDS011;1255;48.716;9.124;2022-08-07T15:42:34;1.20;;;1.10;;
2488;SDS011;1255;48.716;9.124;2022-08-07T15:45:12;1.50;;;1.40;;
2488;SDS011;1255;48.716;9.124;2022-08-07T15:47:47;2.40;;;2.20;;
2488;SDS011;1255;48.716;9.124;2022-08-07T15:50:19;1.33;;;1.23;;
2488;SDS011;1255;48.716;9.124;2022-08-07T15:52:47;1.20;;;1.10;;
2488;SDS011;1255;48.716;9.124;2022-08-07T15:55:17;1.30;;;1.20;;
2488;SDS011;1255;48.716;9.124;2022-08-07T15:57:46;1.30;;;1.20;;